Aweil Airport


Codes: HSAW/
Name: Aweil Airport
City: Aweil
Country: South Sudan
Elevation: 1394 ft.
Wikipedia:

Photos at Aweil Airport


   Photos courtesy of SpottingLog. You can add your own sightings and photos by signing up for a free trial today.



No photos found.

Weather at Aweil Airport


Time (UTC)DescriptionTempratureWindCloud coverageVisibilityPressureHumidity
21-Jun-2024 12:00Scattered Clouds38°C7 mph, S28%10000m1007hPa24%
21-Jun-2024 15:00Scattered Clouds37°C2 mph, S50%10000m1007hPa28%
21-Jun-2024 18:00Broken Clouds33°C4 mph, SW65%10000m1008hPa39%
21-Jun-2024 21:00Broken Clouds28°C4 mph, SW69%10000m1009hPa48%
22-Jun-2024 00:00Broken Clouds26°C4 mph, SW60%10000m1008hPa57%
22-Jun-2024 03:00Few Clouds25°C4 mph, SW23%10000m1009hPa63%
22-Jun-2024 06:00Scattered Clouds29°C4 mph, SW27%10000m1010hPa50%
22-Jun-2024 09:00Few Clouds38°C4 mph, SW19%10000m1009hPa28%
22-Jun-2024 12:00Scattered Clouds40°C2 mph, E45%10000m1006hPa23%
22-Jun-2024 15:00Broken Clouds37°C4 mph, SE80%10000m1005hPa28%
22-Jun-2024 18:00Overcast Clouds31°C4 mph, S86%10000m1006hPa38%
22-Jun-2024 21:00Overcast Clouds28°C4 mph, S85%10000m1008hPa50%
23-Jun-2024 00:00Light Rain26°C4 mph, S92%10000m1008hPa62%
23-Jun-2024 03:00Light Rain24°C2 mph, SW100%10000m1009hPa71%
23-Jun-2024 06:00Light Rain26°C7 mph, SW97%10000m1011hPa69%
23-Jun-2024 09:00Overcast Clouds32°C9 mph, S93%10000m1010hPa45%
23-Jun-2024 12:00Broken Clouds37°C9 mph, S79%10000m1007hPa32%
23-Jun-2024 15:00Broken Clouds36°C4 mph, SW74%10000m1006hPa32%
23-Jun-2024 18:00Light Rain27°C7 mph, SE81%10000m1008hPa68%
23-Jun-2024 21:00Light Rain26°C4 mph, SE93%10000m1010hPa75%
24-Jun-2024 00:00Light Rain24°C7 mph, SW96%10000m1010hPa83%
24-Jun-2024 03:00Overcast Clouds23°C4 mph, SW100%10000m1011hPa88%
24-Jun-2024 06:00Overcast Clouds27°C4 mph, SW94%10000m1012hPa70%
24-Jun-2024 09:00Scattered Clouds35°C7 mph, S47%10000m1010hPa37%
24-Jun-2024 12:00Broken Clouds36°C9 mph, SE66%10000m1008hPa34%
24-Jun-2024 15:00Overcast Clouds35°C9 mph, SE93%10000m1006hPa33%
24-Jun-2024 18:00Light Rain25°C7 mph, W79%10000m1009hPa70%
24-Jun-2024 21:00Light Rain23°C4 mph, W82%10000m1011hPa88%
25-Jun-2024 00:00Broken Clouds22°C4 mph, SW79%10000m1010hPa90%
25-Jun-2024 03:00Overcast Clouds22°C2 mph, SW85%10000m1011hPa90%
25-Jun-2024 06:00Overcast Clouds25°C9 mph, SW93%10000m1011hPa71%
25-Jun-2024 09:00Broken Clouds33°C7 mph, SW75%10000m1010hPa40%
25-Jun-2024 12:00Broken Clouds37°C7 mph, S83%10000m1007hPa28%
25-Jun-2024 15:00Overcast Clouds36°C7 mph, SW100%10000m1005hPa30%
25-Jun-2024 18:00Light Rain26°C7 mph, SW100%10000m1007hPa66%
25-Jun-2024 21:00Light Rain24°C7 mph, S89%10000m1010hPa79%
26-Jun-2024 00:00Light Rain23°C4 mph, SW90%10000m1009hPa85%
26-Jun-2024 03:00Light Rain22°C4 mph, S91%10000m1010hPa91%
26-Jun-2024 06:00Overcast Clouds25°C7 mph, SW94%10000m1011hPa77%
26-Jun-2024 09:00Overcast Clouds33°C7 mph, SW92%10000m1010hPa45%